createdAt,value
2022-09-24T00:01:41.958Z,21.73
2022-09-24T00:04:13.259Z,20.30
2022-09-24T00:06:45.121Z,20.77
2022-09-24T00:09:16.192Z,18.33
2022-09-24T00:11:45.565Z,17.30
2022-09-24T00:14:14.886Z,16.20
2022-09-24T00:16:44.026Z,16.53
2022-09-24T00:19:15.255Z,14.40
2022-09-24T00:21:46.209Z,16.63
2022-09-24T00:24:40.669Z,16.10
2022-09-24T00:34:31.398Z,15.60
2022-09-24T00:37:03.540Z,16.70
2022-09-24T00:39:37.614Z,17.70
2022-09-24T00:42:05.649Z,15.33
2022-09-24T00:44:56.155Z,14.93
2022-09-24T00:47:31.676Z,15.27
2022-09-24T00:50:09.829Z,15.60
2022-09-24T00:52:41.319Z,16.00
2022-09-24T00:55:12.151Z,16.13
2022-09-24T00:57:44.554Z,15.73
2022-09-24T01:00:12.963Z,17.60
2022-09-24T01:02:43.407Z,16.43
2022-09-24T01:05:13.547Z,15.50
2022-09-24T01:07:42.798Z,16.97
2022-09-24T01:10:38.992Z,15.87
2022-09-24T01:13:22.232Z,16.13
2022-09-24T01:19:52.889Z,16.17
2022-09-24T01:22:28.876Z,16.37
2022-09-24T01:25:03.204Z,16.40
2022-09-24T01:27:44.328Z,16.50
2022-09-24T01:33:47.657Z,15.47
2022-09-24T01:36:16.052Z,16.00
2022-09-24T01:39:11.290Z,17.03
2022-09-24T01:41:43.586Z,16.27
2022-09-24T01:44:31.956Z,19.27
2022-09-24T01:47:01.225Z,14.20
2022-09-24T01:49:37.190Z,16.97
2022-09-24T01:55:42.669Z,17.10
2022-09-24T02:01:45.514Z,16.43
2022-09-24T02:04:16.823Z,15.87
2022-09-24T02:07:04.258Z,15.53
2022-09-24T02:09:33.134Z,15.40
2022-09-24T02:12:03.306Z,15.90
2022-09-24T02:14:33.017Z,15.87
2022-09-24T02:17:15.709Z,15.80
2022-09-24T02:19:55.243Z,14.67
2022-09-24T02:23:07.891Z,14.53
2022-09-24T02:25:53.896Z,14.83
2022-09-24T02:28:24.601Z,15.50
2022-09-24T02:44:15.937Z,15.57
2022-09-24T02:50:04.581Z,17.30
2022-09-24T02:52:33.086Z,16.67
2022-09-24T02:55:10.441Z,17.67
2022-09-24T02:57:40.027Z,18.60
2022-09-24T03:00:08.911Z,18.73
2022-09-24T03:02:36.837Z,16.37
2022-09-24T03:05:05.242Z,18.53
2022-09-24T03:14:11.698Z,17.87
2022-09-24T03:16:41.824Z,18.17
2022-09-24T03:19:09.758Z,18.73
2022-09-24T03:21:40.199Z,19.00
2022-09-24T03:24:21.760Z,17.17
2022-09-24T03:26:57.717Z,18.73
2022-09-24T03:30:00.391Z,18.47
2022-09-24T03:32:30.334Z,17.03
2022-09-24T03:35:18.409Z,17.60
2022-09-24T03:38:13.325Z,18.07
2022-09-24T03:40:47.294Z,16.40
2022-09-24T03:43:17.765Z,17.77
2022-09-24T03:45:49.771Z,15.20
2022-09-24T03:48:21.408Z,16.50
2022-09-24T03:50:49.403Z,16.87
2022-09-24T03:53:20.954Z,16.53
2022-09-24T03:56:09.616Z,17.33
2022-09-24T03:58:40.069Z,16.17
2022-09-24T04:01:12.143Z,15.40
2022-09-24T04:03:43.831Z,15.27
2022-09-24T04:06:11.933Z,14.63
2022-09-24T04:08:45.016Z,16.00
2022-09-24T04:11:13.056Z,16.57
2022-09-24T04:13:44.194Z,19.57
2022-09-24T04:16:15.392Z,19.43
2022-09-24T04:18:47.735Z,17.30
2022-09-24T04:25:19.440Z,19.70
2022-09-24T04:27:58.743Z,19.10
2022-09-24T04:30:27.864Z,20.10
2022-09-24T04:33:08.201Z,18.10
2022-09-24T04:35:40.600Z,19.43
2022-09-24T04:38:16.237Z,18.83
2022-09-24T04:41:01.689Z,20.17
2022-09-24T04:43:32.419Z,20.57
2022-09-24T04:46:03.661Z,21.40
2022-09-24T04:48:34.741Z,21.40
2022-09-24T04:51:03.844Z,20.37
2022-09-24T04:53:33.121Z,20.47
2022-09-24T04:56:42.909Z,20.93
2022-09-24T04:59:20.356Z,20.53
2022-09-24T05:01:48.601Z,21.20
2022-09-24T05:04:19.481Z,19.63
2022-09-24T05:07:00.654Z,20.43
2022-09-24T05:09:28.570Z,21.30
2022-09-24T05:13:01.947Z,20.60
2022-09-24T05:15:30.027Z,18.97
2022-09-24T05:17:58.181Z,21.03
2022-09-24T05:20:29.270Z,21.00
2022-09-24T05:23:00.563Z,19.47
2022-09-24T05:25:30.792Z,20.37
2022-09-24T05:27:57.515Z,20.63
2022-09-24T05:30:31.479Z,18.67
2022-09-24T05:33:02.587Z,19.93
2022-09-24T05:35:30.911Z,21.43
2022-09-24T05:38:01.649Z,19.93
2022-09-24T05:43:31.981Z,19.33
2022-09-24T05:46:00.394Z,20.30
2022-09-24T05:48:31.304Z,19.40
2022-09-24T05:51:05.168Z,18.70
2022-09-24T05:53:39.858Z,19.60
2022-09-24T05:56:07.686Z,18.43
2022-09-24T05:58:39.831Z,18.80
2022-09-24T06:01:07.650Z,18.43
2022-09-24T06:03:41.796Z,16.10
2022-09-24T06:06:10.117Z,14.10
2022-09-24T06:08:45.165Z,17.10
2022-09-24T06:11:13.631Z,20.93
2022-09-24T06:13:44.610Z,21.53
2022-09-24T06:16:13.821Z,24.73
2022-09-24T06:18:56.202Z,24.83
2022-09-24T06:21:26.817Z,24.00
2022-09-24T06:23:58.890Z,22.37
2022-09-24T06:26:33.241Z,20.00
2022-09-24T06:29:05.384Z,20.73
2022-09-24T06:31:35.047Z,16.93
2022-09-24T06:34:04.336Z,16.17
2022-09-24T06:36:34.498Z,16.00
2022-09-24T06:39:16.582Z,16.07
2022-09-24T06:41:44.615Z,16.23
2022-09-24T06:44:12.656Z,14.77
2022-09-24T06:46:43.342Z,12.70
2022-09-24T06:49:34.043Z,12.17
2022-09-24T06:52:03.236Z,15.07
2022-09-24T06:54:37.632Z,18.00
2022-09-24T06:57:07.448Z,21.43
2022-09-24T06:59:39.866Z,21.93
2022-09-24T07:02:10.082Z,18.33
2022-09-24T07:05:15.931Z,18.70
2022-09-24T07:07:46.304Z,17.83
2022-09-24T07:10:20.149Z,17.00
2022-09-24T07:12:49.116Z,13.37
2022-09-24T07:15:16.891Z,13.60
2022-09-24T07:17:44.588Z,13.37
2022-09-24T07:20:12.431Z,15.17
2022-09-24T07:22:40.976Z,17.83
2022-09-24T07:25:09.595Z,17.67
2022-09-24T07:27:39.170Z,18.47
2022-09-24T07:30:07.657Z,18.17
2022-09-24T07:32:35.229Z,16.53
2022-09-24T07:35:07.141Z,13.13
2022-09-24T07:37:34.900Z,12.20
2022-09-24T07:40:08.137Z,11.10
2022-09-24T07:42:35.748Z,11.00
2022-09-24T07:45:08.379Z,11.60
2022-09-24T07:47:36.756Z,13.23
2022-09-24T07:50:07.431Z,15.67
2022-09-24T07:52:38.579Z,16.37
2022-09-24T07:55:06.623Z,16.63
2022-09-24T07:57:45.211Z,16.07
2022-09-24T08:00:16.300Z,16.83
2022-09-24T08:02:44.365Z,15.43
2022-09-24T08:05:12.634Z,16.43
2022-09-24T08:07:40.116Z,17.63
2022-09-24T08:10:11.202Z,15.17
2022-09-24T08:12:40.811Z,16.57
2022-09-24T08:15:08.498Z,15.93
2022-09-24T08:17:37.316Z,16.63
2022-09-24T08:20:05.221Z,14.93
2022-09-24T08:22:32.760Z,15.40
2022-09-24T08:25:03.455Z,14.67
2022-09-24T08:27:35.030Z,13.13
2022-09-24T08:30:08.754Z,13.47
2022-09-24T08:32:37.829Z,16.93
2022-09-24T08:35:08.277Z,19.73
2022-09-24T08:37:38.369Z,16.87
2022-09-24T08:40:06.896Z,15.40
2022-09-24T08:42:38.507Z,14.20
2022-09-24T08:45:24.570Z,11.93
2022-09-24T08:47:58.070Z,14.17
2022-09-24T08:50:27.024Z,13.33
2022-09-24T08:53:02.618Z,21.17
2022-09-24T08:55:37.864Z,17.67
2022-09-24T08:58:13.271Z,16.37
2022-09-24T09:00:43.931Z,14.63
2022-09-24T09:03:19.081Z,14.10
2022-09-24T09:05:52.372Z,14.87
2022-09-24T09:08:47.017Z,14.37
2022-09-24T09:11:12.478Z,16.60
2022-09-24T09:13:41.306Z,21.80
2022-09-24T09:16:12.955Z,24.20
2022-09-24T09:18:43.587Z,26.17
2022-09-24T09:21:15.211Z,28.27
2022-09-24T09:23:49.664Z,27.40
2022-09-24T09:26:20.921Z,25.00
2022-09-24T09:28:50.320Z,26.90
2022-09-24T09:31:28.223Z,29.83
2022-09-24T09:34:12.579Z,26.98
2022-09-24T09:36:45.229Z,29.27
2022-09-24T09:39:22.191Z,28.13
2022-09-24T09:41:57.786Z,25.60
2022-09-24T09:44:26.281Z,23.88
2022-09-24T09:46:58.349Z,19.38
2022-09-24T09:49:29.093Z,21.35
2022-09-24T09:51:57.513Z,18.27
2022-09-24T09:54:36.523Z,18.85
2022-09-24T09:57:10.128Z,18.35
2022-09-24T09:59:39.362Z,19.15
2022-09-24T10:02:11.143Z,18.30
2022-09-24T10:04:41.505Z,18.67
2022-09-24T10:07:12.723Z,18.67
2022-09-24T10:09:42.166Z,18.92
2022-09-24T10:12:27.834Z,17.67
2022-09-24T10:14:59.595Z,18.63
2022-09-24T10:17:29.301Z,18.88
2022-09-24T10:20:00.634Z,18.95
2022-09-24T10:22:29.407Z,18.77
2022-09-24T10:24:58.797Z,18.20
2022-09-24T10:27:31.562Z,19.25
2022-09-24T10:30:16.713Z,20.65
2022-09-24T10:32:44.303Z,18.40
2022-09-24T10:35:23.955Z,20.42
2022-09-24T10:37:53.096Z,21.17
2022-09-24T10:40:23.602Z,20.92
2022-09-24T10:42:58.520Z,19.88
2022-09-24T10:45:30.952Z,18.55
2022-09-24T10:48:01.652Z,17.13
2022-09-24T10:50:32.622Z,18.40
2022-09-24T10:53:04.017Z,19.38
2022-09-24T10:55:39.130Z,19.02
2022-09-24T10:58:13.205Z,21.50
2022-09-24T11:00:41.598Z,19.38
2022-09-24T11:03:43.578Z,20.02
2022-09-24T11:06:18.199Z,18.92
2022-09-24T11:08:54.719Z,20.15
2022-09-24T11:11:31.380Z,18.83
2022-09-24T11:14:07.041Z,18.80
2022-09-24T11:16:49.449Z,19.83
2022-09-24T11:19:25.774Z,17.83
2022-09-24T11:22:14.369Z,18.55
2022-09-24T11:25:08.680Z,18.13
2022-09-24T11:28:43.374Z,19.23
2022-09-24T11:31:35.418Z,18.75
2022-09-24T11:34:38.867Z,17.77
2022-09-24T11:37:27.320Z,17.50
2022-09-24T11:40:06.075Z,18.10
2022-09-24T11:43:01.915Z,18.67
2022-09-24T11:46:04.313Z,18.20
2022-09-24T11:48:56.938Z,18.48
2022-09-24T11:51:37.535Z,18.92
2022-09-24T11:54:45.345Z,18.42
2022-09-24T11:57:36.931Z,17.63
2022-09-24T12:00:30.217Z,18.25
2022-09-24T12:20:24.087Z,16.55
2022-09-24T12:23:07.188Z,15.93
2022-09-24T12:25:42.704Z,13.82
2022-09-24T12:28:11.841Z,14.52
2022-09-24T12:31:02.807Z,15.27
2022-09-24T12:33:33.452Z,15.95
2022-09-24T12:36:08.859Z,15.93
2022-09-24T12:38:38.038Z,15.95
2022-09-24T12:41:24.321Z,15.20
2022-09-24T12:43:54.225Z,16.33
2022-09-24T12:46:30.498Z,16.00
2022-09-24T12:49:01.409Z,16.23
2022-09-24T12:51:37.088Z,15.98
2022-09-24T12:54:09.040Z,15.75
2022-09-24T12:56:36.582Z,15.38
2022-09-24T12:59:05.705Z,17.25
2022-09-24T13:01:34.323Z,15.55
2022-09-24T13:04:03.319Z,16.83
2022-09-24T13:06:33.163Z,15.48
2022-09-24T13:09:15.992Z,15.73
2022-09-24T13:11:44.196Z,15.57
2022-09-24T13:14:21.711Z,15.63
2022-09-24T13:16:51.193Z,14.38
2022-09-24T13:19:33.571Z,14.98
2022-09-24T13:22:02.216Z,16.00
2022-09-24T13:24:32.413Z,16.10
2022-09-24T13:27:21.963Z,15.27
2022-09-24T13:29:55.818Z,17.63
2022-09-24T13:32:23.523Z,19.38
2022-09-24T13:34:51.674Z,19.27
2022-09-24T13:37:32.307Z,18.63
2022-09-24T13:40:02.786Z,17.73
2022-09-24T13:42:34.638Z,17.08
2022-09-24T13:45:07.444Z,15.75
2022-09-24T13:47:40.500Z,14.82
2022-09-24T13:50:12.642Z,14.55
2022-09-24T13:52:43.106Z,13.98
2022-09-24T13:55:17.564Z,13.52
2022-09-24T13:57:45.663Z,13.70
2022-09-24T14:00:19.885Z,14.80
2022-09-24T14:02:53.606Z,15.30
2022-09-24T14:05:22.014Z,15.82
2022-09-24T14:08:02.903Z,14.85
2022-09-24T14:10:32.024Z,14.73
2022-09-24T14:13:19.261Z,13.15
2022-09-24T14:15:53.976Z,12.05
2022-09-24T14:18:21.945Z,11.63
2022-09-24T14:20:56.164Z,12.13
2022-09-24T14:23:26.562Z,12.37
2022-09-24T14:26:00.772Z,10.63
2022-09-24T14:28:33.788Z,12.23
2022-09-24T14:31:14.751Z,11.60
2022-09-24T14:33:45.624Z,10.50
2022-09-24T14:36:17.434Z,12.30
2022-09-24T14:38:53.519Z,12.27
2022-09-24T14:41:44.414Z,12.47
2022-09-24T14:44:16.705Z,12.87
2022-09-24T14:46:48.949Z,13.13
2022-09-24T14:49:19.717Z,13.30
2022-09-24T14:51:54.984Z,12.70
2022-09-24T14:54:28.724Z,12.67
2022-09-24T14:57:32.447Z,12.03
2022-09-24T15:00:02.264Z,10.93
2022-09-24T15:02:32.835Z,11.15
2022-09-24T15:05:06.741Z,12.63
2022-09-24T15:07:35.925Z,13.05
2022-09-24T15:10:06.077Z,14.40
2022-09-24T15:12:36.892Z,14.38
2022-09-24T15:15:06.630Z,15.13
2022-09-24T15:17:35.516Z,14.80
2022-09-24T15:20:07.226Z,14.82
2022-09-24T15:22:58.813Z,15.43
2022-09-24T15:25:35.433Z,15.80
2022-09-24T15:28:12.627Z,14.98
2022-09-24T15:30:40.600Z,14.43
2022-09-24T15:33:16.824Z,13.90
2022-09-24T15:35:46.536Z,13.32
2022-09-24T15:38:16.238Z,13.15
2022-09-24T15:40:44.992Z,13.83
2022-09-24T15:43:24.315Z,13.27
2022-09-24T15:45:52.739Z,13.10
2022-09-24T15:48:20.579Z,12.70
2022-09-24T15:50:51.913Z,12.37
2022-09-24T15:53:21.972Z,12.10
2022-09-24T15:55:51.467Z,12.00
2022-09-24T15:58:19.812Z,12.73
2022-09-24T16:00:49.182Z,12.90
2022-09-24T16:03:21.154Z,13.80
2022-09-24T16:05:49.976Z,13.90
2022-09-24T16:08:17.598Z,13.83
2022-09-24T16:10:48.306Z,14.07
2022-09-24T16:13:16.554Z,14.80
2022-09-24T16:15:44.512Z,14.53
2022-09-24T16:18:18.170Z,14.17
2022-09-24T16:20:50.044Z,16.27
2022-09-24T16:23:18.487Z,15.57
2022-09-24T16:25:55.119Z,14.80
2022-09-24T16:28:22.790Z,14.00
2022-09-24T16:30:50.453Z,13.53
2022-09-24T16:33:19.312Z,13.10
2022-09-24T16:35:46.854Z,12.47
2022-09-24T16:38:22.319Z,13.37
2022-09-24T16:40:52.316Z,13.47
2022-09-24T16:43:20.038Z,16.57
2022-09-24T16:45:50.333Z,10.83
2022-09-24T16:48:19.612Z,13.70
2022-09-24T16:50:49.569Z,15.10
2022-09-24T16:53:17.552Z,11.87
2022-09-24T16:55:52.518Z,11.43
2022-09-24T16:58:20.008Z,11.80
2022-09-24T17:00:49.917Z,11.10
2022-09-24T17:03:19.429Z,10.47
2022-09-24T17:05:46.948Z,11.53
2022-09-24T17:08:16.090Z,10.93
2022-09-24T17:10:51.634Z,11.43
2022-09-24T17:13:20.039Z,11.10
2022-09-24T17:15:47.823Z,11.47
2022-09-24T17:18:18.137Z,10.57
2022-09-24T17:20:49.735Z,10.57
2022-09-24T17:23:17.589Z,10.83
2022-09-24T17:25:49.391Z,11.30
2022-09-24T17:28:17.072Z,10.60
2022-09-24T17:30:46.076Z,9.73
2022-09-24T17:33:39.025Z,10.40
2022-09-24T17:36:06.486Z,11.10
2022-09-24T17:38:37.827Z,10.67
2022-09-24T17:41:06.587Z,10.67
2022-09-24T17:43:38.875Z,11.20
2022-09-24T17:46:12.922Z,11.10
2022-09-24T17:48:46.733Z,10.57
2022-09-24T17:51:23.976Z,10.70
2022-09-24T17:53:53.015Z,10.67
2022-09-24T17:56:21.191Z,10.53
2022-09-24T17:58:49.431Z,9.73
2022-09-24T18:01:21.706Z,10.93
2022-09-24T18:03:53.878Z,10.77
2022-09-24T18:06:27.095Z,10.67
2022-09-24T18:08:57.701Z,10.63
2022-09-24T18:11:26.219Z,10.57
2022-09-24T18:13:54.610Z,11.20
2022-09-24T18:16:23.080Z,10.87
2022-09-24T18:18:50.732Z,11.87
2022-09-24T18:21:23.446Z,11.97
2022-09-24T18:23:53.377Z,12.03
2022-09-24T18:26:21.677Z,11.87
2022-09-24T18:28:50.083Z,12.27
2022-09-24T18:31:21.612Z,12.13
2022-09-24T18:33:51.263Z,12.73
2022-09-24T18:36:20.260Z,13.07
2022-09-24T18:38:52.185Z,15.17
2022-09-24T18:41:20.862Z,14.57
2022-09-24T18:43:55.597Z,15.63
2022-09-24T18:46:23.945Z,17.23
2022-09-24T18:48:52.518Z,15.80
2022-09-24T18:51:20.872Z,16.53
2022-09-24T18:53:54.718Z,15.33
2022-09-24T18:56:22.707Z,14.10
2022-09-24T18:58:56.437Z,13.13
2022-09-24T19:01:24.574Z,14.73
2022-09-24T19:03:55.295Z,12.77
2022-09-24T19:06:22.815Z,13.50
2022-09-24T19:08:54.578Z,13.23
2022-09-24T19:11:22.976Z,14.90
2022-09-24T19:13:56.323Z,16.10
2022-09-24T19:16:25.004Z,15.00
2022-09-24T19:18:53.379Z,16.63
2022-09-24T19:21:24.389Z,15.97
2022-09-24T19:23:56.345Z,17.13
2022-09-24T19:26:25.203Z,17.80
2022-09-24T19:28:53.726Z,17.20
2022-09-24T19:31:41.889Z,17.43
2022-09-24T19:34:12.201Z,16.27
2022-09-24T19:36:43.827Z,17.27
2022-09-24T19:39:15.433Z,16.20
2022-09-24T19:41:43.188Z,14.23
2022-09-24T19:44:11.581Z,14.27
2022-09-24T19:46:39.530Z,14.63
2022-09-24T19:49:10.016Z,15.87
2022-09-24T19:51:38.199Z,15.03
2022-09-24T19:54:09.100Z,16.77
2022-09-24T19:56:41.490Z,17.87
2022-09-24T19:59:09.743Z,19.60
2022-09-24T20:01:38.029Z,21.07
2022-09-24T20:04:07.200Z,22.63
2022-09-24T20:06:36.553Z,22.87
2022-09-24T20:09:04.820Z,24.67
2022-09-24T20:11:32.931Z,24.83
2022-09-24T20:14:13.153Z,23.60
2022-09-24T20:16:42.830Z,26.27
2022-09-24T20:19:12.546Z,26.57
2022-09-24T20:21:40.314Z,29.97
2022-09-24T20:24:13.078Z,27.30
2022-09-24T20:26:57.587Z,25.60
2022-09-24T20:29:26.773Z,26.00
2022-09-24T20:31:57.868Z,27.63
2022-09-24T20:34:28.786Z,22.17
2022-09-24T20:36:57.968Z,21.73
2022-09-24T20:39:26.014Z,21.73
2022-09-24T20:41:56.702Z,23.60
2022-09-24T20:44:26.405Z,26.20
2022-09-24T20:46:58.363Z,25.87
2022-09-24T20:49:26.162Z,23.67
2022-09-24T20:51:57.280Z,29.80
2022-09-24T20:54:25.820Z,28.67
2022-09-24T20:56:53.497Z,31.00
2022-09-24T20:59:23.767Z,38.83
2022-09-24T21:01:51.461Z,34.63
2022-09-24T21:04:21.331Z,34.63
2022-09-24T21:06:49.518Z,29.87
2022-09-24T21:09:21.186Z,26.50
2022-09-24T21:11:50.525Z,25.80
2022-09-24T21:14:18.642Z,25.43
2022-09-24T21:20:20.437Z,21.77
2022-09-24T21:22:49.446Z,23.87
2022-09-24T21:32:19.014Z,21.60
2022-09-24T21:34:46.747Z,22.37
2022-09-24T21:37:17.849Z,23.97
2022-09-24T21:39:50.315Z,22.73
2022-09-24T21:42:35.843Z,21.03
2022-09-24T21:45:08.294Z,19.03
2022-09-24T21:47:35.975Z,21.10
2022-09-24T21:50:15.054Z,19.67
2022-09-24T21:52:49.088Z,18.07
2022-09-24T21:55:18.088Z,17.20
2022-09-24T21:57:48.967Z,15.80
2022-09-24T22:00:18.261Z,19.73
2022-09-24T22:03:26.558Z,17.67
2022-09-24T22:05:57.216Z,14.40
2022-09-24T22:11:27.665Z,13.30
2022-09-24T22:13:56.317Z,11.03
2022-09-24T22:16:31.016Z,13.57
2022-09-24T22:19:01.716Z,12.33
2022-09-24T22:21:29.713Z,13.80
2022-09-24T22:23:57.839Z,14.93
2022-09-24T22:26:30.576Z,13.70
2022-09-24T22:29:00.930Z,14.30
2022-09-24T22:31:28.569Z,14.73
2022-09-24T22:34:18.168Z,12.57
2022-09-24T22:36:53.591Z,14.80
2022-09-24T22:39:21.307Z,15.90
2022-09-24T22:42:03.615Z,18.03
2022-09-24T22:44:31.591Z,16.33
2022-09-24T22:47:13.520Z,15.93
2022-09-24T22:49:44.429Z,17.37
2022-09-24T22:55:39.728Z,22.13
2022-09-24T22:58:09.871Z,22.63
2022-09-24T23:00:37.896Z,25.33
2022-09-24T23:03:08.693Z,23.50
2022-09-24T23:05:42.632Z,24.40
2022-09-24T23:08:10.284Z,21.90
2022-09-24T23:10:40.692Z,24.37
2022-09-24T23:13:17.273Z,25.10
2022-09-24T23:15:56.372Z,23.80
2022-09-24T23:18:29.857Z,27.33
2022-09-24T23:21:13.985Z,29.47
2022-09-24T23:23:42.102Z,31.03
2022-09-24T23:33:31.771Z,26.87
2022-09-24T23:36:00.142Z,28.63
2022-09-24T23:38:28.684Z,27.87
2022-09-24T23:41:01.254Z,29.50
2022-09-24T23:43:41.703Z,27.63
2022-09-24T23:46:13.479Z,26.47
2022-09-24T23:48:44.608Z,28.13
2022-09-24T23:51:29.803Z,26.20
2022-09-24T23:53:57.549Z,23.87
2022-09-24T23:56:25.432Z,26.17
2022-09-24T23:58:57.948Z,26.37
